createdAt,value
2022-12-13T00:01:57.812Z,26.95
2022-12-13T00:04:25.834Z,26.55
2022-12-13T00:06:54.268Z,29.92
2022-12-13T00:09:22.368Z,31.70
2022-12-13T00:11:50.267Z,23.83
2022-12-13T00:14:19.736Z,19.80
2022-12-13T00:16:50.075Z,20.48
2022-12-13T00:19:18.678Z,18.53
2022-12-13T00:21:46.035Z,16.63
2022-12-13T00:24:13.847Z,22.67
2022-12-13T00:26:40.869Z,20.83
2022-12-13T00:29:10.987Z,24.73
2022-12-13T00:34:27.052Z,21.20
2022-12-13T00:36:55.145Z,17.17
2022-12-13T00:39:22.254Z,24.33
2022-12-13T00:41:49.088Z,26.98
2022-12-13T00:44:16.071Z,27.83
2022-12-13T00:46:45.449Z,26.40
2022-12-13T00:49:13.549Z,19.58
2022-12-13T00:51:40.830Z,14.00
2022-12-13T00:54:07.953Z,13.48
2022-12-13T00:56:34.871Z,18.60
2022-12-13T00:59:01.939Z,18.38
2022-12-13T01:01:36.424Z,24.77
2022-12-13T01:04:07.941Z,21.90
2022-12-13T01:09:20.967Z,21.98
2022-12-13T01:11:50.897Z,22.58
2022-12-13T01:14:20.076Z,19.60
2022-12-13T01:16:49.593Z,24.38
2022-12-13T01:19:19.634Z,22.10
2022-12-13T01:21:48.627Z,23.10
2022-12-13T01:24:21.210Z,18.63
2022-12-13T01:26:50.671Z,25.60
2022-12-13T01:29:21.195Z,23.70
2022-12-13T01:31:51.494Z,23.02
2022-12-13T01:34:21.306Z,21.77
2022-12-13T01:36:58.408Z,19.67
2022-12-13T01:39:27.452Z,18.15
2022-12-13T01:41:59.678Z,17.88
2022-12-13T01:45:07.485Z,15.38
2022-12-13T01:47:49.368Z,14.00
2022-12-13T01:50:27.372Z,14.60
2022-12-13T01:53:00.285Z,14.38
2022-12-13T01:55:32.410Z,21.02
2022-12-13T01:58:02.258Z,15.75
2022-12-13T02:00:29.747Z,20.33
2022-12-13T02:03:02.272Z,17.77
2022-12-13T02:05:39.179Z,15.93
2022-12-13T02:08:08.385Z,14.38
2022-12-13T02:10:38.902Z,17.98
2022-12-13T02:13:06.047Z,15.83
2022-12-13T02:15:49.459Z,11.38
2022-12-13T02:18:38.908Z,13.45
2022-12-13T02:21:27.445Z,15.77
2022-12-13T02:24:22.212Z,15.25
2022-12-13T02:27:31.221Z,13.60
2022-12-13T02:30:39.255Z,14.95
2022-12-13T02:33:22.215Z,14.27
2022-12-13T02:36:18.056Z,11.52
2022-12-13T02:38:53.726Z,11.80
2022-12-13T02:42:07.782Z,11.68
2022-12-13T02:45:20.557Z,11.48
2022-12-13T02:47:49.418Z,9.50
2022-12-13T02:50:16.711Z,9.90
2022-12-13T02:52:46.686Z,11.20
2022-12-13T02:55:18.030Z,9.88
2022-12-13T02:57:51.305Z,9.20
2022-12-13T03:00:23.262Z,9.80
2022-12-13T03:03:41.392Z,9.70
2022-12-13T03:06:46.442Z,10.32
2022-12-13T03:09:51.995Z,9.75
2022-12-13T03:13:01.948Z,8.73
2022-12-13T03:15:45.388Z,10.25
2022-12-13T03:18:21.648Z,9.55
2022-12-13T03:21:00.134Z,9.40
2022-12-13T03:23:28.542Z,8.75
2022-12-13T03:26:02.156Z,10.55
2022-12-13T03:28:29.235Z,10.15
2022-12-13T03:30:58.773Z,9.25
2022-12-13T03:33:28.016Z,8.40
2022-12-13T03:35:55.086Z,11.27
2022-12-13T03:38:23.472Z,9.93
2022-12-13T03:40:54.650Z,9.60
2022-12-13T03:43:22.913Z,9.88
2022-12-13T03:45:54.356Z,9.40
2022-12-13T03:48:23.691Z,7.53
2022-12-13T03:50:53.108Z,9.05
2022-12-13T03:53:23.113Z,7.97
2022-12-13T03:56:04.397Z,8.10
2022-12-13T03:58:35.397Z,8.48
2022-12-13T04:01:08.430Z,7.30
2022-12-13T04:03:37.823Z,7.97
2022-12-13T04:06:05.559Z,8.50
2022-12-13T04:08:33.110Z,7.28
2022-12-13T04:11:00.179Z,8.40
2022-12-13T04:13:32.854Z,11.70
2022-12-13T04:16:01.256Z,6.75
2022-12-13T04:18:30.668Z,7.03
2022-12-13T04:20:58.057Z,7.45
2022-12-13T04:23:27.918Z,6.03
2022-12-13T04:25:57.382Z,6.35
2022-12-13T04:28:26.772Z,8.57
2022-12-13T04:30:54.328Z,7.90
2022-12-13T04:33:25.188Z,7.22
2022-12-13T04:35:54.881Z,6.03
2022-12-13T04:38:21.721Z,7.90
2022-12-13T04:40:48.691Z,6.63
2022-12-13T04:43:15.860Z,6.63
2022-12-13T04:45:42.930Z,8.75
2022-12-13T04:48:12.090Z,7.05
2022-12-13T04:50:39.112Z,7.60
2022-12-13T04:53:06.016Z,6.60
2022-12-13T04:55:32.984Z,7.18
2022-12-13T04:58:02.424Z,8.00
2022-12-13T05:00:31.782Z,7.43
2022-12-13T05:03:00.797Z,7.25
2022-12-13T05:05:27.691Z,6.70
2022-12-13T05:07:55.368Z,7.68
2022-12-13T05:10:33.572Z,5.72
2022-12-13T05:13:03.040Z,7.03
2022-12-13T05:15:30.306Z,8.38
2022-12-13T05:18:10.252Z,6.50
2022-12-13T05:20:39.744Z,5.77
2022-12-13T05:23:08.888Z,7.72
2022-12-13T05:25:38.256Z,8.38
2022-12-13T05:28:26.765Z,7.05
2022-12-13T05:30:54.884Z,6.60
2022-12-13T05:33:22.773Z,6.80
2022-12-13T05:35:49.868Z,6.20
2022-12-13T05:38:16.842Z,6.40
2022-12-13T05:40:46.096Z,7.43
2022-12-13T05:43:21.775Z,6.50
2022-12-13T05:45:50.295Z,7.32
2022-12-13T05:48:25.098Z,7.13
2022-12-13T05:51:09.582Z,6.68
2022-12-13T05:53:41.504Z,5.68
2022-12-13T05:56:10.186Z,7.65
2022-12-13T05:58:39.127Z,9.43
2022-12-13T06:01:17.163Z,9.13
2022-12-13T06:03:44.308Z,11.27
2022-12-13T06:06:17.552Z,7.22
2022-12-13T06:08:44.708Z,6.88
2022-12-13T06:11:31.273Z,6.53
2022-12-13T06:14:00.893Z,11.98
2022-12-13T06:16:30.484Z,7.53
2022-12-13T06:19:03.834Z,7.53
2022-12-13T06:21:41.681Z,6.18
2022-12-13T06:24:19.941Z,9.43
2022-12-13T06:26:47.016Z,5.95
2022-12-13T06:29:23.756Z,8.93
2022-12-13T06:32:01.437Z,4.82
2022-12-13T06:34:33.929Z,8.38
2022-12-13T06:37:01.910Z,6.70
2022-12-13T06:39:32.683Z,7.03
2022-12-13T06:44:30.788Z,10.07
2022-12-13T06:47:10.537Z,13.70
2022-12-13T06:52:12.528Z,8.00
2022-12-13T06:54:40.054Z,7.45
2022-12-13T06:57:10.063Z,10.00
2022-12-13T06:59:37.026Z,8.35
2022-12-13T07:02:06.652Z,7.00
2022-12-13T07:04:52.645Z,7.15
2022-12-13T07:07:22.117Z,6.63
2022-12-13T07:09:49.230Z,8.10
2022-12-13T07:12:16.210Z,7.70
2022-12-13T07:14:45.205Z,6.97
2022-12-13T07:17:12.122Z,6.15
2022-12-13T07:19:39.083Z,10.20
2022-12-13T07:22:06.287Z,9.10
2022-12-13T07:24:35.166Z,9.02
2022-12-13T07:27:06.080Z,8.45
2022-12-13T07:29:32.962Z,8.57
2022-12-13T07:32:01.782Z,6.82
2022-12-13T07:34:31.536Z,11.43
2022-12-13T07:36:58.463Z,8.80
2022-12-13T07:39:28.844Z,6.82
2022-12-13T07:41:58.432Z,7.07
2022-12-13T07:44:28.206Z,8.32
2022-12-13T07:46:55.306Z,7.68
2022-12-13T07:49:22.374Z,7.50
2022-12-13T07:51:51.785Z,7.25
2022-12-13T07:54:21.259Z,8.00
2022-12-13T07:56:48.134Z,4.78
2022-12-13T07:59:15.074Z,5.60
2022-12-13T08:01:41.947Z,6.13
2022-12-13T08:04:09.277Z,7.65
2022-12-13T08:06:38.573Z,6.68
2022-12-13T08:09:06.064Z,7.55
2022-12-13T08:11:33.215Z,5.28
2022-12-13T08:14:04.736Z,6.25
2022-12-13T08:16:31.814Z,6.03
2022-12-13T08:19:04.604Z,8.15
2022-12-13T08:22:01.565Z,7.93
2022-12-13T08:24:30.535Z,8.00
2022-12-13T08:27:03.355Z,8.65
2022-12-13T08:29:34.119Z,5.57
2022-12-13T08:32:09.230Z,5.85
2022-12-13T08:34:38.992Z,7.05
2022-12-13T08:37:06.110Z,9.77
2022-12-13T08:39:36.054Z,8.52
2022-12-13T08:42:16.909Z,8.48
2022-12-13T08:44:47.556Z,7.88
2022-12-13T08:47:23.165Z,7.75
2022-12-13T08:50:01.513Z,5.15
2022-12-13T08:52:39.464Z,7.30
2022-12-13T08:55:12.314Z,5.45
2022-12-13T09:00:19.750Z,7.22
2022-12-13T09:02:49.570Z,6.15
2022-12-13T09:05:33.658Z,5.40
2022-12-13T09:08:23.992Z,6.35
2022-12-13T09:11:00.483Z,5.95
2022-12-13T09:13:43.088Z,5.68
2022-12-13T09:16:23.431Z,5.53
2022-12-13T09:18:55.532Z,5.30
2022-12-13T09:21:31.666Z,6.05
2022-12-13T09:24:02.447Z,5.25
2022-12-13T09:26:38.181Z,4.75
2022-12-13T09:29:10.667Z,7.95
2022-12-13T09:31:40.632Z,4.85
2022-12-13T09:34:10.074Z,5.43
2022-12-13T09:36:39.590Z,5.47
2022-12-13T09:39:09.299Z,7.32
2022-12-13T09:41:40.551Z,6.47
2022-12-13T09:44:31.032Z,5.38
2022-12-13T09:47:03.848Z,7.20
2022-12-13T09:49:51.739Z,6.60
2022-12-13T09:52:24.702Z,5.00
2022-12-13T09:54:57.058Z,6.55
2022-12-13T09:57:33.800Z,4.50
2022-12-13T10:00:13.778Z,4.38
2022-12-13T10:02:51.332Z,4.90
2022-12-13T10:05:34.034Z,5.53
2022-12-13T10:08:24.372Z,5.00
2022-12-13T10:10:53.142Z,4.70
2022-12-13T10:13:45.812Z,4.82
2022-12-13T10:16:24.802Z,4.82
2022-12-13T10:18:56.924Z,5.80
2022-12-13T10:21:36.595Z,4.80
2022-12-13T10:24:36.407Z,4.25
2022-12-13T10:27:18.733Z,5.27
2022-12-13T10:29:59.793Z,4.53
2022-12-13T10:32:27.410Z,5.55
2022-12-13T10:34:57.478Z,4.47
2022-12-13T10:37:24.321Z,4.28
2022-12-13T10:39:54.602Z,5.53
2022-12-13T10:42:24.997Z,4.25
2022-12-13T10:45:31.941Z,4.65
2022-12-13T10:48:04.141Z,4.20
2022-12-13T10:50:31.932Z,4.38
2022-12-13T10:53:00.687Z,4.10
2022-12-13T10:55:32.949Z,4.35
2022-12-13T10:58:12.133Z,5.00
2022-12-13T11:00:46.326Z,3.65
2022-12-13T11:03:34.923Z,4.05
2022-12-13T11:06:15.788Z,3.22
2022-12-13T11:08:47.489Z,3.70
2022-12-13T11:11:18.720Z,3.95
2022-12-13T11:13:51.640Z,3.25
2022-12-13T11:16:35.539Z,4.38
2022-12-13T11:19:28.211Z,3.28
2022-12-13T11:21:59.202Z,4.75
2022-12-13T11:24:39.029Z,5.28
2022-12-13T11:27:23.169Z,5.15
2022-12-13T11:30:01.376Z,3.65
2022-12-13T11:33:09.069Z,3.83
2022-12-13T11:36:21.286Z,4.25
2022-12-13T11:39:23.234Z,4.43
2022-12-13T11:45:22.853Z,4.20
2022-12-13T11:48:09.011Z,3.65
2022-12-13T11:50:46.157Z,3.55
2022-12-13T11:53:49.373Z,3.35
2022-12-13T11:56:28.611Z,3.60
2022-12-13T11:59:26.591Z,3.38
2022-12-13T12:02:05.100Z,2.67
2022-12-13T12:04:48.755Z,3.35
2022-12-13T12:08:05.691Z,3.28
2022-12-13T12:10:45.674Z,3.17
2022-12-13T12:13:50.958Z,3.55
2022-12-13T12:21:14.770Z,3.58
2022-12-13T12:24:16.658Z,2.28
2022-12-13T12:29:44.720Z,3.95
2022-12-13T12:32:28.380Z,3.30
2022-12-13T12:35:55.338Z,2.88
2022-12-13T12:39:01.511Z,3.75
2022-12-13T12:42:00.375Z,2.88
2022-12-13T12:44:55.786Z,3.72
2022-12-13T12:51:10.563Z,4.00
2022-12-13T12:53:52.734Z,2.70
2022-12-13T12:56:45.669Z,6.47
2022-12-13T12:59:39.797Z,3.17
2022-12-13T13:02:16.722Z,2.97
2022-12-13T13:04:52.301Z,3.20
2022-12-13T13:07:39.674Z,3.20
2022-12-13T13:10:16.555Z,3.45
2022-12-13T13:13:11.421Z,4.10
2022-12-13T13:15:40.121Z,2.90
2022-12-13T13:18:52.347Z,3.05
2022-12-13T13:24:07.782Z,3.42
2022-12-13T13:26:57.509Z,3.30
2022-12-13T13:29:26.951Z,2.97
2022-12-13T13:32:05.538Z,3.85
2022-12-13T13:34:43.144Z,3.33
2022-12-13T13:37:23.210Z,3.95
2022-12-13T13:40:08.233Z,4.30
2022-12-13T13:42:35.101Z,3.05
2022-12-13T13:45:27.037Z,6.18
2022-12-13T13:48:40.388Z,4.35
2022-12-13T13:51:22.039Z,5.95
2022-12-13T13:56:53.543Z,3.55
2022-12-13T13:59:54.021Z,2.95
2022-12-13T14:02:35.858Z,3.05
2022-12-13T14:05:40.469Z,3.63
2022-12-13T14:08:28.965Z,4.65
2022-12-13T14:11:38.689Z,4.43
2022-12-13T14:14:41.779Z,3.47
2022-12-13T14:18:03.356Z,4.33
2022-12-13T14:21:12.695Z,3.30
2022-12-13T14:24:09.266Z,3.97
2022-12-13T14:26:59.401Z,2.78
2022-12-13T14:29:38.863Z,3.58
2022-12-13T14:32:26.390Z,4.85
2022-12-13T14:34:56.122Z,6.32
2022-12-13T14:37:34.550Z,3.78
2022-12-13T14:40:26.722Z,6.10
2022-12-13T14:42:56.975Z,5.13
2022-12-13T14:45:32.359Z,5.03
2022-12-13T14:48:14.723Z,4.30
2022-12-13T14:50:44.941Z,5.13
2022-12-13T14:53:37.264Z,4.75
2022-12-13T14:56:11.463Z,6.85
2022-12-13T14:59:04.922Z,5.55
2022-12-13T15:01:38.595Z,4.68
2022-12-13T15:04:21.318Z,4.88
2022-12-13T15:07:00.350Z,4.65
2022-12-13T15:09:28.922Z,4.95
2022-12-13T15:12:14.574Z,5.72
2022-12-13T15:15:02.599Z,3.92
2022-12-13T15:17:29.429Z,5.43
2022-12-13T15:19:56.362Z,7.05
2022-12-13T15:22:29.192Z,6.95
2022-12-13T15:24:57.932Z,8.40
2022-12-13T15:27:25.576Z,6.47
2022-12-13T15:29:54.388Z,6.35
2022-12-13T15:32:23.979Z,6.70
2022-12-13T15:34:51.729Z,8.32
2022-12-13T15:37:28.599Z,7.15
2022-12-13T15:40:07.928Z,9.27
2022-12-13T15:42:38.939Z,6.60
2022-12-13T15:45:19.426Z,7.78
2022-12-13T15:47:49.840Z,10.75
2022-12-13T15:50:45.180Z,7.13
2022-12-13T15:53:29.348Z,8.07
2022-12-13T15:56:00.357Z,11.05
2022-12-13T15:58:35.655Z,9.98
2022-12-13T16:01:05.626Z,8.40
2022-12-13T16:03:44.748Z,7.78
2022-12-13T16:06:23.679Z,13.90
2022-12-13T16:08:53.773Z,10.90
2022-12-13T16:11:56.115Z,10.02
2022-12-13T16:14:32.262Z,11.82
2022-12-13T16:17:25.739Z,11.75
2022-12-13T16:20:06.016Z,8.23
2022-12-13T16:22:36.221Z,8.18
2022-12-13T16:25:03.175Z,10.88
2022-12-13T16:27:30.052Z,11.18
2022-12-13T16:29:57.028Z,11.38
2022-12-13T16:32:23.958Z,11.70
2022-12-13T16:34:50.844Z,9.35
2022-12-13T16:37:26.510Z,13.30
2022-12-13T16:39:56.917Z,10.80
2022-12-13T16:42:26.506Z,13.93
2022-12-13T16:45:17.690Z,12.25
2022-12-13T16:47:48.433Z,10.98
2022-12-13T16:50:20.315Z,11.23
2022-12-13T16:52:48.698Z,10.93
2022-12-13T16:55:20.373Z,12.38
2022-12-13T16:58:06.760Z,12.25
2022-12-13T17:00:36.804Z,12.25
2022-12-13T17:03:03.911Z,12.38
2022-12-13T17:05:34.248Z,12.07
2022-12-13T17:08:01.383Z,11.52
2022-12-13T17:10:28.837Z,12.55
2022-12-13T17:12:55.751Z,12.95
2022-12-13T17:15:26.115Z,14.52
2022-12-13T17:17:53.281Z,14.20
2022-12-13T17:20:20.235Z,13.98
2022-12-13T17:22:47.204Z,14.73
2022-12-13T17:25:17.000Z,13.35
2022-12-13T17:27:44.044Z,12.63
2022-12-13T17:30:16.119Z,12.73
2022-12-13T17:32:43.544Z,13.90
2022-12-13T17:35:16.273Z,14.77
2022-12-13T17:37:44.941Z,15.45
2022-12-13T17:40:11.916Z,15.18
2022-12-13T17:42:38.815Z,14.88
2022-12-13T17:45:06.374Z,13.40
2022-12-13T17:47:33.331Z,14.65
2022-12-13T17:50:00.308Z,13.70
2022-12-13T17:52:29.754Z,14.73
2022-12-13T17:54:56.687Z,13.63
2022-12-13T17:57:25.841Z,12.88
2022-12-13T17:59:52.627Z,14.93
2022-12-13T18:02:23.037Z,15.00
2022-12-13T18:04:52.623Z,13.88
2022-12-13T18:07:22.343Z,15.60
2022-12-13T18:09:51.621Z,15.73
2022-12-13T18:12:20.624Z,16.10
2022-12-13T18:14:47.447Z,18.90
2022-12-13T18:17:18.946Z,16.98
2022-12-13T18:22:15.566Z,16.00
2022-12-13T18:24:44.953Z,14.70
2022-12-13T18:27:12.864Z,20.23
2022-12-13T18:29:42.758Z,19.50
2022-12-13T18:32:22.534Z,16.58
2022-12-13T18:34:54.608Z,21.73
2022-12-13T18:37:21.791Z,19.38
2022-12-13T18:39:55.148Z,17.73
2022-12-13T18:42:24.817Z,19.98
2022-12-13T18:44:54.881Z,15.70
2022-12-13T18:47:24.200Z,18.92
2022-12-13T18:49:55.079Z,16.33
2022-12-13T18:52:23.830Z,16.17
2022-12-13T18:54:54.173Z,17.48
2022-12-13T18:57:23.875Z,16.60
2022-12-13T18:59:54.475Z,15.30
2022-12-13T19:02:32.599Z,15.90
2022-12-13T19:05:01.255Z,18.83
2022-12-13T19:07:30.604Z,16.60
2022-12-13T19:09:57.456Z,14.23
2022-12-13T19:12:25.020Z,17.95
2022-12-13T19:14:54.850Z,17.13
2022-12-13T19:17:24.451Z,18.83
2022-12-13T19:19:54.237Z,16.23
2022-12-13T19:22:21.741Z,18.73
2022-12-13T19:24:49.099Z,17.15
2022-12-13T19:27:19.150Z,15.75
2022-12-13T19:29:48.399Z,16.33
2022-12-13T19:32:17.796Z,16.02
2022-12-13T19:34:44.701Z,16.83
2022-12-13T19:37:14.332Z,17.05
2022-12-13T19:39:41.264Z,14.75
2022-12-13T19:42:08.224Z,15.13
2022-12-13T19:44:39.833Z,16.58
2022-12-13T19:47:07.078Z,19.02
2022-12-13T19:49:36.445Z,17.85
2022-12-13T19:52:03.361Z,18.80
2022-12-13T19:54:33.076Z,20.00
2022-12-13T19:57:07.328Z,17.65
2022-12-13T19:59:36.785Z,19.17
2022-12-13T20:02:06.919Z,16.83
2022-12-13T20:04:33.898Z,18.92
2022-12-13T20:07:04.795Z,18.83
2022-12-13T20:09:34.714Z,16.35
2022-12-13T20:12:06.611Z,16.45
2022-12-13T20:14:33.669Z,17.02
2022-12-13T20:17:03.516Z,18.20
2022-12-13T20:19:30.415Z,17.25
2022-12-13T20:21:57.315Z,19.08
2022-12-13T20:24:28.841Z,19.77
2022-12-13T20:29:23.022Z,16.88
2022-12-13T20:31:52.111Z,16.20
2022-12-13T20:34:20.030Z,18.42
2022-12-13T20:36:50.162Z,16.92
2022-12-13T20:39:17.085Z,17.30
2022-12-13T20:41:45.119Z,16.52
2022-12-13T20:44:13.720Z,17.15
2022-12-13T20:46:41.242Z,20.52
2022-12-13T20:49:10.625Z,15.93
2022-12-13T20:51:41.326Z,17.27
2022-12-13T20:54:11.426Z,18.40
2022-12-13T20:56:40.323Z,19.48
2022-12-13T20:59:10.699Z,16.45
2022-12-13T21:01:40.393Z,17.23
2022-12-13T21:04:09.577Z,16.35
2022-12-13T21:06:40.681Z,18.02
2022-12-13T21:09:12.679Z,16.98
2022-12-13T21:11:48.295Z,14.60
2022-12-13T21:14:22.350Z,20.58
2022-12-13T21:16:55.019Z,16.88
2022-12-13T21:19:35.831Z,18.45
2022-12-13T21:22:06.406Z,16.10
2022-12-13T21:24:33.577Z,16.58
2022-12-13T21:27:04.571Z,16.38
2022-12-13T21:29:31.699Z,19.30
2022-12-13T21:32:01.776Z,16.90
2022-12-13T21:34:31.163Z,16.23
2022-12-13T21:36:58.360Z,14.40
2022-12-13T21:39:34.290Z,20.35
2022-12-13T21:42:01.258Z,17.30
2022-12-13T21:44:30.554Z,20.55
2022-12-13T21:47:13.806Z,16.98
2022-12-13T21:49:48.563Z,18.50
2022-12-13T21:52:15.952Z,18.13
2022-12-13T21:54:46.065Z,14.65
2022-12-13T21:57:31.829Z,17.65
2022-12-13T21:59:58.696Z,17.42
2022-12-13T22:02:25.620Z,16.20
2022-12-13T22:04:57.743Z,24.10
2022-12-13T22:07:33.761Z,17.50
2022-12-13T22:10:03.504Z,14.93
2022-12-13T22:12:40.740Z,20.98
2022-12-13T22:15:14.209Z,21.65
2022-12-13T22:17:42.173Z,17.85
2022-12-13T22:20:15.332Z,18.08
2022-12-13T22:22:44.427Z,18.50
2022-12-13T22:25:13.999Z,18.85
2022-12-13T22:27:40.834Z,18.20
2022-12-13T22:30:10.736Z,19.80
2022-12-13T22:32:37.626Z,24.67
2022-12-13T22:35:07.846Z,18.95
2022-12-13T22:37:40.131Z,18.08
2022-12-13T22:40:10.034Z,19.30
2022-12-13T22:42:36.858Z,19.75
2022-12-13T22:45:06.511Z,16.70
2022-12-13T22:47:33.461Z,18.95
2022-12-13T22:50:05.063Z,18.05
2022-12-13T22:52:34.473Z,18.13
2022-12-13T22:55:03.955Z,19.08
2022-12-13T22:57:30.752Z,17.63
2022-12-13T23:00:02.430Z,20.92
2022-12-13T23:02:29.295Z,17.02
2022-12-13T23:04:56.205Z,18.98
2022-12-13T23:07:25.561Z,19.33
2022-12-13T23:09:57.045Z,19.05
2022-12-13T23:15:10.357Z,19.38
2022-12-13T23:17:37.192Z,17.17
2022-12-13T23:20:04.974Z,18.05
2022-12-13T23:22:34.211Z,21.92
2022-12-13T23:25:03.267Z,18.15
2022-12-13T23:27:32.733Z,19.40
2022-12-13T23:29:59.598Z,17.35
2022-12-13T23:32:26.490Z,15.88
2022-12-13T23:34:55.926Z,18.75
2022-12-13T23:37:25.185Z,17.30
2022-12-13T23:39:52.055Z,19.15
2022-12-13T23:42:23.958Z,18.80
2022-12-13T23:44:50.849Z,20.35
2022-12-13T23:47:17.691Z,21.08
2022-12-13T23:49:48.355Z,17.73
2022-12-13T23:52:15.380Z,14.90
2022-12-13T23:54:42.264Z,17.73
2022-12-13T23:57:09.105Z,15.90
2022-12-13T23:59:36.014Z,19.92
